Time;durP1;ratioP1;P1;durP2;ratioP2;P2;SDS_P1;SDS_P2;PMS_P1;PMS_P2;Temp;Humidity;BMP_temperature;BMP_pressure;BME280_temperature;BME280_humidity;BME280_pressure;Samples;Min_cycle;Max_cycle;Signal;HPM_P1;HPM_P2
2021/03/21 00:01:12;;;;;;;34.80;22.88;;;;;;;-5.25;66.74;96441.56;5006080;28;20046;-54
2021/03/21 00:03:39;;;;;;;36.92;21.10;;;;;;;-5.19;66.17;96437.59;4995517;28;20041;-54
2021/03/21 00:06:07;;;;;;;43.83;21.88;;;;;;;-5.14;66.97;96443.13;5005249;28;20502;-55
2021/03/21 00:08:34;;;;;;;29.77;19.38;;;;;;;-5.27;66.63;96417.75;4996032;28;20069;-54
2021/03/21 00:11:07;;;;;;;35.65;21.52;;;;;;;-5.15;66.59;96426.09;4988396;28;20054;-55
2021/03/21 00:13:35;;;;;;;39.22;22.40;;;;;;;-5.22;66.55;96420.69;5008635;28;20499;-53
2021/03/21 00:16:04;;;;;;;34.42;18.42;;;;;;;-5.29;66.02;96423.03;4991506;28;20488;-54
2021/03/21 00:18:33;;;;;;;34.28;18.58;;;;;;;-5.26;66.29;96417.63;4992575;28;20064;-54
2021/03/21 00:21:02;;;;;;;38.47;21.15;;;;;;;-5.23;66.56;96421.66;4991051;28;20167;-54
2021/03/21 00:23:29;;;;;;;42.05;21.83;;;;;;;-5.27;67.22;96416.00;5000111;28;20049;-55
2021/03/21 00:25:57;;;;;;;33.75;18.65;;;;;;;-5.35;67.05;96412.50;5009580;28;20045;-54
2021/03/21 00:28:29;;;;;;;38.22;21.35;;;;;;;-5.33;67.03;96406.25;4999395;28;20057;-54
2021/03/21 00:30:57;;;;;;;38.28;21.33;;;;;;;-5.33;66.72;96395.19;5003206;28;20060;-54
2021/03/21 00:33:27;;;;;;;40.78;21.35;;;;;;;-5.34;66.71;96404.66;5004654;28;20049;-54
2021/03/21 00:35:55;;;;;;;42.60;20.85;;;;;;;-5.35;67.10;96395.31;4998218;28;20034;-55
2021/03/21 00:38:28;;;;;;;39.67;19.38;;;;;;;-5.43;67.23;96396.06;5007693;28;20050;-54
2021/03/21 00:40:57;;;;;;;37.33;20.52;;;;;;;-5.54;67.95;96398.00;5017801;28;20065;-54
2021/03/21 00:43:25;;;;;;;32.88;18.02;;;;;;;-5.60;68.25;96392.44;5001394;28;20042;-54
2021/03/21 00:45:53;;;;;;;40.45;20.67;;;;;;;-5.60;68.60;96392.44;4990823;28;20057;-54
2021/03/21 00:48:23;;;;;;;34.55;18.60;;;;;;;-5.59;68.23;96399.22;5005971;28;20045;-56
2021/03/21 00:50:52;;;;;;;38.42;18.88;;;;;;;-5.58;68.32;96390.56;4975674;28;20068;-54
2021/03/21 00:53:19;;;;;;;40.15;21.42;;;;;;;-5.53;68.56;96384.19;4990375;28;20050;-54
2021/03/21 00:55:48;;;;;;;32.55;16.95;;;;;;;-5.49;67.95;96383.75;5004796;28;20053;-54
2021/03/21 00:58:17;;;;;;;33.33;18.40;;;;;;;-5.57;67.95;96363.91;4999331;28;20073;-55
2021/03/21 01:00:52;;;;;;;38.33;20.30;;;;;;;-5.45;67.57;96377.38;5017897;28;20052;-54
2021/03/21 01:03:20;;;;;;;36.55;18.73;;;;;;;-5.46;67.40;96377.50;5016959;28;20065;-54
2021/03/21 01:05:51;;;;;;;33.38;17.73;;;;;;;-5.48;67.94;96361.44;5018914;28;20038;-54
2021/03/21 01:08:23;;;;;;;32.47;19.23;;;;;;;-5.61;68.26;96361.75;5004099;28;20053;-55
2021/03/21 01:11:01;;;;;;;28.25;18.17;;;;;;;-5.69;68.50;96352.19;5013672;28;20049;-54
2021/03/21 01:13:30;;;;;;;26.73;15.10;;;;;;;-5.67;68.43;96363.16;5020516;28;20056;-54
2021/03/21 01:15:57;;;;;;;30.77;16.45;;;;;;;-5.76;68.66;96348.59;4979869;28;20041;-54
2021/03/21 01:18:28;;;;;;;28.88;16.83;;;;;;;-5.78;69.02;96353.84;4992209;28;20052;-54
2021/03/21 01:20:57;;;;;;;28.88;15.65;;;;;;;-5.82;68.96;96354.28;4994888;28;20045;-54
2021/03/21 01:23:25;;;;;;;30.95;17.23;;;;;;;-5.88;69.21;96351.34;5016650;28;20049;-54
2021/03/21 01:25:53;;;;;;;28.88;17.15;;;;;;;-5.93;69.71;96350.94;5019701;28;20053;-54
2021/03/21 01:28:27;;;;;;;27.58;17.17;;;;;;;-6.09;70.15;96317.41;5019017;28;20414;-54
2021/03/21 01:30:57;;;;;;;30.77;17.23;;;;;;;-5.92;69.94;96346.63;5007695;28;20152;-55
2021/03/21 01:33:26;;;;;;;30.55;18.35;;;;;;;-5.91;69.52;96340.53;5012072;28;20045;-54
2021/03/21 01:35:54;;;;;;;28.88;17.77;;;;;;;-5.83;69.55;96342.38;5021506;28;20049;-55
2021/03/21 01:38:22;;;;;;;31.90;17.00;;;;;;;-5.81;69.70;96340.47;5002790;28;20048;-55
2021/03/21 01:40:52;;;;;;;32.90;18.83;;;;;;;-5.79;69.15;96336.00;5009465;28;20383;-54
2021/03/21 01:43:29;;;;;;;35.08;19.40;;;;;;;-5.81;69.24;96336.16;5008006;28;20057;-55
2021/03/21 01:45:57;;;;;;;38.05;19.55;;;;;;;-5.92;69.67;96319.16;5003621;28;20053;-54
2021/03/21 01:48:46;;;;;;;35.67;20.80;;;;;;;-5.80;69.97;96329.25;4996919;28;20155;-53
2021/03/21 01:51:31;;;;;;;34.40;20.42;;;;;;;-5.80;69.72;96319.81;5011051;28;20041;-54
2021/03/21 01:54:03;;;;;;;40.42;22.00;;;;;;;-5.75;69.81;96325.31;4992960;28;20037;-55
2021/03/21 01:56:32;;;;;;;41.15;22.38;;;;;;;-5.76;69.83;96320.31;4992801;28;20060;-54
2021/03/21 01:59:06;;;;;;;34.42;19.77;;;;;;;-5.76;69.39;96315.19;4991902;28;20505;-55
2021/03/21 02:01:35;;;;;;;38.30;19.50;;;;;;;-5.69;68.96;96318.78;4973759;28;20064;-54
2021/03/21 02:04:03;;;;;;;37.72;20.38;;;;;;;-5.67;68.64;96316.09;5006529;28;20053;-55
2021/03/21 02:06:30;;;;;;;35.10;19.58;;;;;;;-5.74;69.36;96314.06;5020339;28;20053;-54
2021/03/21 02:09:07;;;;;;;33.25;17.15;;;;;;;-5.76;68.75;96304.91;5004772;28;20045;-54
2021/03/21 02:11:57;;;;;;;29.63;16.25;;;;;;;-5.73;68.31;96302.06;4973468;28;20048;-55
2021/03/21 02:14:43;;;;;;;29.85;16.10;;;;;;;-5.76;68.43;96298.00;5010057;28;20052;-54
2021/03/21 02:17:58;;;;;;;34.90;19.00;;;;;;;-5.92;69.03;96288.34;5019818;28;20061;-54
2021/03/21 02:20:35;;;;;;;35.65;20.83;;;;;;;-5.90;69.57;96293.31;5015383;28;20391;-54
2021/03/21 02:23:10;;;;;;;36.42;21.73;;;;;;;-5.91;69.69;96289.16;5009882;28;20517;-53
2021/03/21 02:26:15;;;;;;;40.13;20.65;;;;;;;-5.94;69.61;96292.00;5024856;28;20065;-54
2021/03/21 02:29:11;;;;;;;48.95;22.80;;;;;;;-5.97;69.45;96285.41;5023496;28;20037;-54
2021/03/21 02:31:44;;;;;;;36.40;20.90;;;;;;;-6.00;69.26;96288.28;4998019;28;20081;-54
2021/03/21 02:34:37;;;;;;;34.65;21.55;;;;;;;-6.07;69.44;96279.50;5005975;28;20513;-53
2021/03/21 02:37:12;;;;;;;38.67;20.98;;;;;;;-6.14;69.47;96289.53;4993764;28;20073;-55
2021/03/21 02:39:51;;;;;;;43.33;23.55;;;;;;;-6.21;70.24;96275.66;5027374;28;20528;-54
2021/03/21 02:42:26;;;;;;;37.38;21.75;;;;;;;-6.29;70.50;96260.97;4996461;28;20052;-55
2021/03/21 02:45:22;;;;;;;40.88;20.13;;;;;;;-6.30;70.43;96261.91;4994182;28;20048;-54
2021/03/21 02:47:51;;;;;;;36.63;18.35;;;;;;;-6.37;70.23;96263.44;5013207;28;20064;-54
2021/03/21 02:50:26;;;;;;;35.10;17.15;;;;;;;-6.41;70.59;96264.66;4976958;28;20045;-53
2021/03/21 02:52:59;;;;;;;31.35;15.40;;;;;;;-6.48;69.97;96261.84;4993103;28;20054;-56
2021/03/21 02:55:34;;;;;;;27.63;14.85;;;;;;;-6.56;70.11;96249.69;5012256;28;20174;-54
2021/03/21 02:58:25;;;;;;;25.42;15.80;;;;;;;-6.68;70.48;96256.78;5018085;28;20072;-55
2021/03/21 03:00:57;;;;;;;32.97;16.83;;;;;;;-6.78;71.24;96256.00;5011039;28;20045;-54
2021/03/21 03:03:26;;;;;;;28.13;15.88;;;;;;;-6.80;71.28;96248.41;5022845;28;20053;-54
2021/03/21 03:06:11;;;;;;;29.42;16.25;;;;;;;-6.79;71.75;96238.97;5007886;28;20053;-53
2021/03/21 03:08:47;;;;;;;31.10;17.42;;;;;;;-6.83;71.77;96242.75;5011874;28;20506;-54
2021/03/21 03:11:19;;;;;;;34.72;19.85;;;;;;;-6.85;71.86;96245.47;5003733;28;20072;-54
2021/03/21 03:13:54;;;;;;;25.45;14.70;;;;;;;-6.83;71.57;96242.75;5021945;28;20038;-53
2021/03/21 03:16:38;;;;;;;30.92;16.08;;;;;;;-6.84;72.16;96234.28;5022294;28;20046;-54
2021/03/21 03:19:30;;;;;;;27.42;15.73;;;;;;;-6.82;72.01;96234.13;4994636;28;20088;-54
2021/03/21 03:22:08;;;;;;;26.17;14.85;;;;;;;-6.88;72.12;96216.72;4985955;28;20537;-53
2021/03/21 03:24:52;;;;;;;26.83;14.77;;;;;;;-6.84;72.16;96231.72;5023351;28;20088;-54
2021/03/21 03:27:30;;;;;;;29.95;16.58;;;;;;;-6.87;73.16;96221.72;5022251;28;20076;-54
2021/03/21 03:30:18;;;;;;;28.58;14.60;;;;;;;-6.84;72.60;96223.19;5009899;28;20422;-54
2021/03/21 03:32:46;;;;;;;26.25;15.38;;;;;;;-6.83;72.29;96207.66;5008201;28;20421;-54
2021/03/21 03:35:19;;;;;;;31.60;16.70;;;;;;;-6.75;72.51;96209.50;5009023;28;20080;-54
2021/03/21 03:37:47;;;;;;;31.15;17.23;;;;;;;-6.82;72.13;96203.34;5011835;28;20056;-53
2021/03/21 03:40:17;;;;;;;30.35;15.98;;;;;;;-6.74;72.10;96206.00;4993164;28;20056;-54
2021/03/21 03:42:51;;;;;;;23.02;14.35;;;;;;;-6.62;71.65;96203.25;4995610;28;20037;-54
2021/03/21 03:45:35;;;;;;;30.88;16.13;;;;;;;-6.60;71.59;96197.06;5023778;28;20049;-54
2021/03/21 03:48:34;;;;;;;33.00;17.60;;;;;;;-6.64;71.61;96190.59;5023035;28;20060;-54
2021/03/21 03:51:14;;;;;;;31.55;17.63;;;;;;;-6.60;72.31;96183.41;5003635;28;20053;-56
2021/03/21 03:53:49;;;;;;;28.33;15.15;;;;;;;-6.59;71.94;96193.56;5002130;28;20064;-55
2021/03/21 03:56:43;;;;;;;32.58;19.08;;;;;;;-6.66;72.52;96179.66;4995859;28;20409;-54
2021/03/21 03:59:49;;;;;;;31.63;19.33;;;;;;;-6.72;72.21;96182.78;5018192;28;20444;-54
2021/03/21 04:02:25;;;;;;;38.17;19.03;;;;;;;-6.77;73.10;96179.84;4991155;28;20049;-55
2021/03/21 04:05:23;;;;;;;30.48;17.98;;;;;;;-6.75;73.00;96173.59;5013243;28;20045;-54
2021/03/21 04:08:28;;;;;;;32.88;18.00;;;;;;;-6.70;72.69;96175.75;5013486;28;20068;-54
2021/03/21 04:11:26;;;;;;;28.95;16.48;;;;;;;-6.65;72.16;96176.13;4992561;28;20049;-54
2021/03/21 04:14:13;;;;;;;36.50;17.17;;;;;;;-6.59;72.40;96178.16;5010123;28;20046;-54
2021/03/21 04:16:59;;;;;;;25.92;15.18;;;;;;;-6.58;71.62;96169.47;5011244;28;20441;-54
2021/03/21 04:19:39;;;;;;;32.10;16.60;;;;;;;-6.67;71.42;96165.19;5012861;28;20049;-54
2021/03/21 04:22:22;;;;;;;35.60;17.75;;;;;;;-6.73;71.86;96155.53;4979191;28;20037;-56
2021/03/21 04:25:01;;;;;;;35.60;18.48;;;;;;;-6.82;72.17;96152.84;5022105;28;20112;-54
2021/03/21 04:27:59;;;;;;;26.27;16.67;;;;;;;-6.93;71.54;96149.66;5024760;28;20050;-54
2021/03/21 04:30:32;;;;;;;29.58;18.65;;;;;;;-6.96;71.84;96153.31;4992655;28;20044;-53
2021/03/21 04:33:02;;;;;;;29.00;15.30;;;;;;;-7.07;71.99;96145.75;4983516;28;20509;-55
2021/03/21 04:36:01;;;;;;;28.73;16.35;;;;;;;-7.12;71.85;96141.88;5004676;28;20079;-54
2021/03/21 04:38:34;;;;;;;31.40;17.30;;;;;;;-7.13;71.67;96145.38;5009746;28;20064;-54
2021/03/21 04:41:04;;;;;;;25.63;15.02;;;;;;;-7.19;71.57;96140.00;5022160;28;20520;-55
2021/03/21 04:43:47;;;;;;;33.53;18.40;;;;;;;-7.21;71.62;96141.91;4976522;28;20453;-54
2021/03/21 04:46:27;;;;;;;27.23;19.85;;;;;;;-7.21;73.55;96139.34;5020764;28;20049;-54
2021/03/21 04:48:56;;;;;;;28.45;16.17;;;;;;;-7.18;73.27;96142.41;4992413;28;20586;-54
2021/03/21 04:51:28;;;;;;;27.23;16.45;;;;;;;-7.11;72.34;96135.81;5007351;28;20049;-54
2021/03/21 04:54:27;;;;;;;26.30;15.38;;;;;;;-7.01;71.58;96135.75;5021017;28;20674;-53
2021/03/21 04:57:19;;;;;;;30.92;17.63;;;;;;;-6.96;71.60;96133.59;5001870;28;20053;-54
2021/03/21 04:59:47;;;;;;;33.42;19.27;;;;;;;-6.96;71.48;96125.09;5009972;28;20061;-54
2021/03/21 05:02:21;;;;;;;35.05;18.98;;;;;;;-6.98;71.04;96139.81;5023651;28;20148;-53
2021/03/21 05:05:04;;;;;;;35.00;18.42;;;;;;;-6.86;71.98;96136.13;5017619;28;20072;-54
2021/03/21 05:07:51;;;;;;;36.58;19.02;;;;;;;-6.88;72.11;96126.94;4991225;28;20054;-54
2021/03/21 05:10:51;;;;;;;32.28;18.23;;;;;;;-6.88;72.05;96130.31;5011592;28;20053;-54
2021/03/21 05:13:29;;;;;;;36.95;19.45;;;;;;;-7.00;71.74;96128.88;5017583;28;20037;-54
2021/03/21 05:16:19;;;;;;;37.30;21.88;;;;;;;-7.10;72.21;96128.91;5020008;28;20045;-54
2021/03/21 05:18:52;;;;;;;46.50;21.77;;;;;;;-7.15;72.59;96121.63;5011196;28;20052;-59
2021/03/21 05:21:28;;;;;;;33.25;19.08;;;;;;;-7.19;72.35;96119.50;5025359;28;20053;-54
2021/03/21 05:24:02;;;;;;;38.42;19.70;;;;;;;-7.17;72.45;96125.31;5023318;28;20394;-54
2021/03/21 05:26:55;;;;;;;30.30;18.13;;;;;;;-7.19;72.86;96130.53;5019219;28;20052;-56
2021/03/21 05:29:37;;;;;;;35.22;16.98;;;;;;;-7.13;72.67;96130.00;4975748;28;20050;-54
2021/03/21 05:32:06;;;;;;;31.35;18.02;;;;;;;-7.02;72.62;96130.78;5017567;28;20041;-55
2021/03/21 05:34:34;;;;;;;36.00;20.30;;;;;;;-6.99;72.18;96130.50;4993771;28;20135;-54
2021/03/21 05:37:34;;;;;;;33.33;17.23;;;;;;;-6.93;71.63;96129.13;5020784;28;20049;-54
2021/03/21 05:40:01;;;;;;;32.05;18.02;;;;;;;-6.92;72.11;96131.53;5013514;28;20052;-54
2021/03/21 05:42:42;;;;;;;29.38;18.25;;;;;;;-6.97;72.64;96133.75;5021072;28;20049;-54
2021/03/21 05:45:20;;;;;;;34.08;17.25;;;;;;;-6.92;71.99;96125.63;4992295;28;20049;-54
2021/03/21 05:48:21;;;;;;;29.38;17.92;;;;;;;-6.78;72.22;96124.34;4992447;28;20050;-53
2021/03/21 05:51:11;;;;;;;30.77;16.77;;;;;;;-6.63;71.26;96125.50;5010357;28;20053;-54
2021/03/21 05:54:12;;;;;;;36.80;16.40;;;;;;;-6.56;71.10;96118.03;5011237;28;20225;-54
2021/03/21 05:56:55;;;;;;;28.42;16.58;;;;;;;-6.44;70.69;96123.75;5010894;28;20053;-53
2021/03/21 05:59:31;;;;;;;35.30;19.17;;;;;;;-6.36;70.63;96118.72;4999006;28;20460;-55
2021/03/21 06:02:32;;;;;;;33.30;16.70;;;;;;;-6.21;70.51;96119.84;5022299;28;20045;-56
2021/03/21 06:05:28;;;;;;;22.25;14.65;;;;;;;-6.07;69.91;96110.84;5007972;28;20524;-54
2021/03/21 06:08:23;;;;;;;29.67;16.52;;;;;;;-5.91;69.25;96104.22;4982562;28;20052;-56
2021/03/21 06:11:08;;;;;;;23.77;15.75;;;;;;;-5.71;68.29;96109.97;5004639;28;20513;-54
2021/03/21 06:13:45;;;;;;;24.67;13.38;;;;;;;-5.60;67.64;96111.50;5021583;28;20049;-54
2021/03/21 06:16:59;;;;;;;20.10;12.90;;;;;;;-5.47;65.85;96111.09;5006132;28;20060;-55
2021/03/21 06:19:53;;;;;;;24.80;13.75;;;;;;;-5.32;65.22;96099.31;5006997;28;20624;-54
2021/03/21 06:22:44;;;;;;;19.60;11.93;;;;;;;-5.21;64.71;96094.88;5000099;28;20045;-54
2021/03/21 06:25:49;;;;;;;17.25;11.35;;;;;;;-5.10;63.67;96103.16;5015897;28;20044;-54
2021/03/21 06:28:38;;;;;;;20.13;11.70;;;;;;;-4.91;63.14;96097.94;5016314;28;20042;-54
2021/03/21 06:31:47;;;;;;;14.07;8.90;;;;;;;-4.75;60.81;96098.03;5010663;28;20037;-55
2021/03/21 06:34:42;;;;;;;14.57;9.20;;;;;;;-4.58;58.98;96090.34;4989047;28;20569;-53
2021/03/21 06:37:19;;;;;;;14.82;9.02;;;;;;;-4.49;58.00;96081.66;5001474;28;20053;-54
2021/03/21 06:40:19;;;;;;;16.17;8.00;;;;;;;-4.40;56.20;96078.16;5008339;28;20041;-54
2021/03/21 06:42:53;;;;;;;12.45;6.35;;;;;;;-4.23;53.00;96067.88;5025231;28;20056;-54
2021/03/21 06:45:41;;;;;;;10.82;6.57;;;;;;;-4.10;51.77;96072.59;5021690;28;20054;-53
2021/03/21 06:48:30;;;;;;;9.38;6.80;;;;;;;-3.92;51.72;96069.88;5014446;28;20057;-54
2021/03/21 06:51:28;;;;;;;11.32;6.05;;;;;;;-3.81;50.87;96066.97;5020850;28;20054;-54
2021/03/21 06:54:17;;;;;;;7.75;5.03;;;;;;;-3.72;48.44;96058.25;4994825;28;20053;-55
2021/03/21 06:56:45;;;;;;;7.15;5.47;;;;;;;-3.59;48.95;96059.53;5012280;28;20053;-55
2021/03/21 06:59:40;;;;;;;11.77;7.32;;;;;;;-3.45;49.96;96060.66;5017964;28;20064;-54
2021/03/21 07:02:33;;;;;;;19.13;11.13;;;;;;;-3.33;52.65;96061.09;5005659;28;20053;-54
2021/03/21 07:05:09;;;;;;;20.70;11.27;;;;;;;-3.21;51.75;96054.63;5015527;28;20510;-55
2021/03/21 07:07:56;;;;;;;15.60;10.23;;;;;;;-3.12;51.99;96053.63;5026725;28;20053;-56
2021/03/21 07:10:42;;;;;;;21.70;12.93;;;;;;;-3.03;52.38;96051.03;5023314;28;20676;-55
2021/03/21 07:13:35;;;;;;;;;;;;;;;-2.96;51.05;96050.22;4981328;28;20053;-54
2021/03/21 07:16:24;;;;;;;17.13;9.55;;;;;;;-2.90;49.37;96051.31;5003811;28;19921;-55
2021/03/21 07:19:30;;;;;;;16.23;7.82;;;;;;;-2.86;46.82;96054.38;4992963;28;20524;-58
2021/03/21 07:22:28;;;;;;;6.68;4.65;;;;;;;-2.79;45.97;96045.78;5019409;28;20061;-54
2021/03/21 07:24:59;;;;;;;6.57;5.32;;;;;;;-2.74;44.79;96034.94;5013130;28;20041;-54
2021/03/21 07:27:49;;;;;;;5.55;3.92;;;;;;;-2.65;43.99;96040.88;5019410;28;20072;-55
2021/03/21 07:30:25;;;;;;;7.05;4.38;;;;;;;-2.57;43.64;96040.84;5017916;28;20057;-55
2021/03/21 07:33:21;;;;;;;6.97;4.78;;;;;;;-2.53;42.95;96024.03;5021037;28;20048;-55
2021/03/21 07:36:12;;;;;;;8.65;4.55;;;;;;;-2.45;43.50;96022.38;5027157;28;20048;-54
2021/03/21 07:38:51;;;;;;;7.43;4.20;;;;;;;-2.33;43.31;96018.41;4996002;28;20072;-54
2021/03/21 07:41:54;;;;;;;6.97;4.30;;;;;;;-2.26;41.17;96010.78;4993534;28;20496;-54
2021/03/21 07:44:43;;;;;;;7.32;4.03;;;;;;;-2.15;42.76;96007.78;5002182;28;20042;-54
2021/03/21 07:47:38;;;;;;;7.95;4.15;;;;;;;-2.03;41.78;96000.44;5016116;28;20053;-56
2021/03/21 07:50:27;;;;;;;7.47;4.23;;;;;;;-1.91;41.13;95993.84;5013574;28;20045;-54
2021/03/21 07:53:27;;;;;;;6.25;3.75;;;;;;;-1.93;41.32;95972.56;5003805;28;20049;-54
2021/03/21 07:56:21;;;;;;;4.88;3.75;;;;;;;-1.60;41.40;95984.38;4983464;28;20061;-53
2021/03/21 07:59:01;;;;;;;5.80;4.28;;;;;;;-1.40;39.50;95977.69;4990677;28;20053;-55
2021/03/21 08:01:28;;;;;;;6.43;3.72;;;;;;;-1.15;39.22;95967.06;5015243;28;20539;-54
2021/03/21 08:04:03;;;;;;;6.25;4.28;;;;;;;-0.80;39.14;95967.28;5019797;28;20570;-55
2021/03/21 08:06:40;;;;;;;6.57;3.58;;;;;;;-0.26;38.93;95961.81;5015485;28;20413;-54
2021/03/21 08:09:19;;;;;;;4.93;3.58;;;;;;;0.14;38.29;95951.78;5021161;28;20049;-57
2021/03/21 08:11:51;;;;;;;7.65;5.38;;;;;;;0.50;37.50;95956.00;5014741;28;20053;-55
2021/03/21 08:14:28;;;;;;;4.00;3.25;;;;;;;0.65;36.03;95952.50;5018310;28;20421;-56
2021/03/21 08:17:01;;;;;;;3.95;3.17;;;;;;;0.80;35.75;95949.75;5002835;28;20056;-54
2021/03/21 08:19:33;;;;;;;4.68;3.35;;;;;;;0.88;35.53;95947.81;5011875;28;20597;-55
2021/03/21 08:22:13;;;;;;;4.72;3.55;;;;;;;-146.28;100.00;62448.88;5016643;28;20702;-55
2021/03/21 08:24:43;;;;;;;5.13;3.15;;;;;;;-146.28;100.00;62448.88;5000284;28;20406;-54
2021/03/21 08:27:24;;;;;;;5.40;2.90;;;;;;;-146.28;100.00;62448.88;5020529;28;20056;-54
2021/03/21 08:30:13;;;;;;;4.65;3.50;;;;;;;-146.28;100.00;62448.88;5013505;28;20048;-54
2021/03/21 08:32:55;;;;;;;7.68;3.35;;;;;;;-146.28;100.00;62448.88;5020036;28;20057;-54
2021/03/21 08:35:25;;;;;;;5.95;3.42;;;;;;;-146.28;100.00;62448.88;5020235;28;20124;-54
2021/03/21 08:37:55;;;;;;;8.40;3.40;;;;;;;-146.28;100.00;62448.88;4999446;28;20460;-54
2021/03/21 08:40:28;;;;;;;4.63;3.13;;;;;;;-146.28;100.00;62448.88;5013351;28;20037;-54
2021/03/21 08:43:21;;;;;;;5.07;3.05;;;;;;;-146.28;100.00;62448.88;5017950;28;20041;-55
2021/03/21 08:46:07;;;;;;;8.90;4.32;;;;;;;-146.28;100.00;62448.88;5016342;28;21014;-54
2021/03/21 08:48:38;;;;;;;8.45;4.28;;;;;;;-146.28;100.00;62448.88;5021486;28;20448;-56
2021/03/21 08:51:11;;;;;;;5.22;3.85;;;;;;;-146.28;100.00;62448.88;5014646;28;20060;-55
2021/03/21 08:54:10;;;;;;;5.63;4.35;;;;;;;-146.28;100.00;62448.88;5016647;28;20064;-54
2021/03/21 08:56:55;;;;;;;4.97;3.10;;;;;;;-146.28;100.00;62448.88;4995957;28;20057;-55
2021/03/21 08:59:39;;;;;;;3.45;2.83;;;;;;;-146.28;100.00;62448.88;4983283;28;20606;-54
2021/03/21 09:02:07;;;;;;;5.50;3.17;;;;;;;-146.28;100.00;62448.88;5005783;28;20555;-54
2021/03/21 09:04:39;;;;;;;4.93;3.45;;;;;;;-146.28;100.00;62448.88;5007198;28;20417;-56
2021/03/21 09:07:17;;;;;;;7.40;4.03;;;;;;;-146.28;100.00;62448.88;4993890;28;20057;-56
2021/03/21 09:09:45;;;;;;;10.02;3.78;;;;;;;-146.28;100.00;62448.88;5014029;28;20041;-55
2021/03/21 09:12:22;;;;;;;5.18;3.97;;;;;;;-146.28;100.00;62448.88;5012853;28;20058;-55
2021/03/21 09:15:11;;;;;;;4.70;3.88;;;;;;;-146.28;100.00;62448.88;5011216;28;20049;-54
2021/03/21 09:17:38;;;;;;;7.78;3.85;;;;;;;-146.28;100.00;62448.88;5004251;28;20049;-55
2021/03/21 09:20:08;;;;;;;8.43;5.13;;;;;;;-146.28;100.00;62448.88;5007886;28;20450;-54
2021/03/21 09:22:41;;;;;;;4.40;3.53;;;;;;;-146.28;100.00;62448.88;5016029;28;20041;-55
2021/03/21 09:25:13;;;;;;;5.75;3.80;;;;;;;-146.28;100.00;62448.88;4998158;28;21368;-55
2021/03/21 09:27:43;;;;;;;5.80;4.28;;;;;;;-146.28;100.00;62448.88;5018487;28;20052;-55
2021/03/21 09:30:34;;;;;;;9.35;4.35;;;;;;;-146.28;100.00;62448.88;4993130;28;20076;-55
2021/03/21 09:33:16;;;;;;;7.88;4.45;;;;;;;-146.28;100.00;62448.88;5023802;28;20071;-55
2021/03/21 09:35:47;;;;;;;6.43;4.97;;;;;;;-146.28;100.00;62448.88;5010803;28;20489;-54
2021/03/21 09:38:24;;;;;;;7.43;3.78;;;;;;;-146.28;100.00;62448.88;5014929;28;20060;-55
2021/03/21 09:41:04;;;;;;;5.70;4.07;;;;;;;-146.28;100.00;62448.88;5008628;28;20049;-55
2021/03/21 09:43:35;;;;;;;5.10;3.55;;;;;;;-146.28;100.00;62448.88;4991316;28;20053;-53
2021/03/21 09:46:07;;;;;;;5.32;3.60;;;;;;;-146.28;100.00;62448.88;4996356;28;20170;-54
2021/03/21 09:48:45;;;;;;;5.00;4.22;;;;;;;-146.28;100.00;62448.88;5007037;28;20049;-53
2021/03/21 09:51:16;;;;;;;5.40;4.15;;;;;;;-146.28;100.00;62448.88;4992487;28;20653;-54
2021/03/21 09:54:06;;;;;;;5.80;4.18;;;;;;;-146.28;100.00;62448.88;5013674;28;20421;-54
2021/03/21 09:57:05;;;;;;;5.22;3.92;;;;;;;-146.28;100.00;62448.88;4989045;28;20060;-54
2021/03/21 09:59:55;;;;;;;6.63;4.80;;;;;;;-146.28;100.00;62448.88;4998699;28;20057;-54
2021/03/21 10:02:44;;;;;;;5.78;3.92;;;;;;;-146.28;100.00;62448.88;5009105;28;20049;-54
2021/03/21 10:05:32;;;;;;;11.07;5.47;;;;;;;-146.28;100.00;62448.88;5020065;28;20046;-54
2021/03/21 10:07:59;;;;;;;9.82;5.68;;;;;;;-146.28;100.00;62448.88;5020274;28;20041;-55
2021/03/21 10:10:36;;;;;;;6.20;4.07;;;;;;;-146.28;100.00;62448.88;5007566;28;20123;-55
2021/03/21 10:13:05;;;;;;;5.95;4.40;;;;;;;-146.28;100.00;62448.88;5010907;28;20049;-54
2021/03/21 10:16:09;;;;;;;6.43;4.72;;;;;;;-146.28;100.00;62448.88;5010480;28;20037;-55
2021/03/21 10:18:44;;;;;;;9.65;3.97;;;;;;;-146.28;100.00;62448.88;4946999;28;20049;-58
2021/03/21 10:21:29;;;;;;;5.83;4.13;;;;;;;-146.28;100.00;62448.88;5012412;28;20056;-57
2021/03/21 10:24:07;;;;;;;4.97;4.10;;;;;;;-146.28;100.00;62448.88;4975244;28;20054;-53
2021/03/21 10:26:35;;;;;;;6.15;4.85;;;;;;;-146.28;100.00;62448.88;5004748;28;20049;-55
2021/03/21 10:29:09;;;;;;;9.32;6.53;;;;;;;-146.28;100.00;62448.88;5002763;28;20053;-54
2021/03/21 10:31:39;;;;;;;5.38;4.05;;;;;;;-146.28;100.00;62448.88;5016494;28;20493;-54
2021/03/21 10:34:07;;;;;;;5.93;4.60;;;;;;;-146.28;100.00;62448.88;5017367;28;20049;-54
2021/03/21 10:36:46;;;;;;;6.70;4.05;;;;;;;-146.28;100.00;62448.88;5018724;28;20851;-54
2021/03/21 10:39:23;;;;;;;9.70;4.18;;;;;;;-146.28;100.00;62448.88;5004528;28;20045;-55
2021/03/21 10:42:09;;;;;;;7.53;4.72;;;;;;;-146.28;100.00;62448.88;5017995;28;20053;-55
2021/03/21 10:44:36;;;;;;;11.77;6.03;;;;;;;-146.28;100.00;62448.88;5023531;28;20045;-56
2021/03/21 10:47:22;;;;;;;9.15;4.50;;;;;;;-146.28;100.00;62448.88;5024922;28;20041;-54
2021/03/21 10:49:54;;;;;;;6.53;4.25;;;;;;;-146.28;100.00;62448.88;5013197;28;20049;-55
2021/03/21 10:52:32;;;;;;;5.70;4.28;;;;;;;-146.28;100.00;62448.88;4993628;28;20456;-54
2021/03/21 10:55:14;;;;;;;7.03;4.63;;;;;;;-146.28;100.00;62448.88;5017282;28;20049;-54
2021/03/21 10:57:45;;;;;;;6.50;4.85;;;;;;;-146.28;100.00;62448.88;5003325;28;20076;-55
2021/03/21 11:00:26;;;;;;;7.97;4.88;;;;;;;-146.28;100.00;62448.88;4991386;28;20052;-55
2021/03/21 11:03:05;;;;;;;7.40;4.30;;;;;;;-146.28;100.00;62448.88;5008677;28;20507;-54
2021/03/21 11:05:45;;;;;;;8.43;4.63;;;;;;;-146.28;100.00;62448.88;5020716;28;20057;-56
2021/03/21 11:08:13;;;;;;;7.78;4.70;;;;;;;-146.28;100.00;62448.88;5011064;28;20050;-54
2021/03/21 11:10:44;;;;;;;6.63;5.43;;;;;;;-146.28;100.00;62448.88;5020488;28;20098;-54
2021/03/21 11:13:28;;;;;;;6.97;4.30;;;;;;;-146.28;100.00;62448.88;5014083;28;20050;-54
2021/03/21 11:15:58;;;;;;;5.03;3.55;;;;;;;-146.28;100.00;62448.88;5017080;28;20512;-54
2021/03/21 11:18:33;;;;;;;6.15;4.47;;;;;;;-146.28;100.00;62448.88;5016771;28;20049;-54
2021/03/21 11:21:08;;;;;;;5.25;4.00;;;;;;;-146.28;100.00;62448.88;4995195;28;20052;-55
2021/03/21 11:23:53;;;;;;;5.43;4.28;;;;;;;-146.28;100.00;62448.88;5022140;28;20056;-55
2021/03/21 11:26:27;;;;;;;5.25;4.05;;;;;;;-146.28;100.00;62448.88;5018232;28;20037;-54
2021/03/21 11:29:01;;;;;;;7.20;4.22;;;;;;;-146.28;100.00;62448.88;5019849;28;20049;-54
2021/03/21 11:31:51;;;;;;;8.05;4.60;;;;;;;-146.28;100.00;62448.88;5009313;28;20054;-56
2021/03/21 11:34:21;;;;;;;6.75;4.63;;;;;;;-146.28;100.00;62448.88;5017768;28;20049;-54
2021/03/21 11:37:08;;;;;;;6.95;4.30;;;;;;;-146.28;100.00;62448.88;5021392;28;20041;-56
2021/03/21 11:39:37;;;;;;;4.88;4.13;;;;;;;-146.28;100.00;62448.88;5017738;28;20540;-55
2021/03/21 11:42:38;;;;;;;6.57;4.85;;;;;;;-146.28;100.00;62448.88;5017408;28;20077;-55
2021/03/21 11:45:20;;;;;;;6.82;4.07;;;;;;;-146.28;100.00;62448.88;5020788;28;20053;-54
2021/03/21 11:47:50;;;;;;;6.88;4.68;;;;;;;-146.28;100.00;62448.88;5019432;28;20048;-55
2021/03/21 11:50:29;;;;;;;8.07;4.30;;;;;;;-146.28;100.00;62448.88;5007616;28;20049;-54
2021/03/21 11:52:58;;;;;;;6.35;4.07;;;;;;;-146.28;100.00;62448.88;5019067;28;20040;-55
2021/03/21 11:55:30;;;;;;;13.98;6.00;;;;;;;-146.28;100.00;62448.88;4997554;28;20053;-55
2021/03/21 11:58:07;;;;;;;7.28;4.30;;;;;;;-146.28;100.00;62448.88;5022704;28;20045;-54
2021/03/21 12:00:37;;;;;;;5.80;4.75;;;;;;;-146.28;100.00;62448.88;5019405;28;20049;-54
2021/03/21 12:03:08;;;;;;;6.20;4.80;;;;;;;-146.28;100.00;62448.88;5015591;28;20050;-55
2021/03/21 12:05:39;;;;;;;7.35;4.95;;;;;;;-146.28;100.00;62448.88;5002073;28;20061;-55
2021/03/21 12:08:13;;;;;;;5.82;4.35;;;;;;;-146.28;100.00;62448.88;5017385;28;20053;-56
2021/03/21 12:10:43;;;;;;;9.80;4.07;;;;;;;-146.28;100.00;62448.88;4999620;28;20579;-55
2021/03/21 12:13:37;;;;;;;7.57;4.00;;;;;;;-146.28;100.00;62448.88;4993382;28;20307;-56